Vicki B — WD12776 — position and weather

sailwx.info

Track history (hours):
 
Tides and Currents Weather Stations Pressure Air Temp Water Temp Dewpoint Dewpoint Depression Visibility Wind Speed Wind Dir Waves Ship Positions

Vicki B

Last reported at 2018-Jul-22 13:56 UTC. Time now 2018-Jul-22 14:11 UTC.
Position N 45°48' W 122°51'.

Type: Towing. MMSI: 367681630.

Date/timePositionNaut miles runAvg speedWind from/ knotsBaromVisibWave heightAir tempDewpointWater temp
2018-Jul-22 13:56N 45°48' W 122°51'0 0.0
2018-Jul-22 13:30N 45°48' W 122°51'1 2.3
2018-Jul-22 13:00N 45°48' W 122°50'1 2.9
2018-Jul-22 12:30N 45°50' W 122°49'2 2.2
2018-Jul-22 11:46N 45°48' W 122°47'2 8.4
2018-Jul-22 11:30N 45°46' W 122°46'4 8.1
2018-Jul-22 11:00N 45°42' W 122°46'4 7.4
2018-Jul-22 10:29N 45°39' W 122°44'4 8.0
2018-Jul-22 10:00N 45°37' W 122°39'4 8.3
2018-Jul-22 09:30N 45°36' W 122°34'4 7.1
2018-Jul-22 09:00N 45°35' W 122°29'2 3.5
2018-Jul-22 08:30N 45°34' W 122°27'0 0.0
2018-Jul-22 08:00N 45°34' W 122°27'0 0.0
2018-Jul-22 07:14N 45°34' W 122°27'0 0.0
2018-Jul-22 07:00N 45°34' W 122°27'0 0.0
2018-Jul-22 06:30N 45°34' W 122°27'0 0.0
2018-Jul-22 06:00N 45°34' W 122°27'0 0.0
2018-Jul-22 05:30N 45°34' W 122°27'0 0.0
2018-Jul-22 04:50N 45°34' W 122°27'0 0.3
2018-Jul-22 04:15N 45°34' W 122°27'1 3.0
2018-Jul-22 03:49N 45°35' W 122°28'1 3.4
2018-Jul-22 03:30N 45°35' W 122°30'2 3.5
2018-Jul-22 03:00N 45°35' W 122°32'2 3.3
2018-Jul-22 02:30N 45°36' W 122°34'2 3.5
2018-Jul-22 02:00N 45°36' W 122°37'2 3.7
2018-Jul-22 01:30N 45°37' W 122°39'2 3.5
2018-Jul-22 01:00N 45°38' W 122°42'2 3.3
2018-Jul-22 00:30N 45°38' W 122°44'2 4.2
2018-Jul-21 23:59N 45°40' W 122°46'2 4.3
2018-Jul-21 23:30N 45°42' W 122°46'2 4.4
2018-Jul-21 23:00N 45°44' W 122°46'2 4.4
2018-Jul-21 22:30N 45°46' W 122°46'2 4.4
2018-Jul-21 22:00N 45°48' W 122°47'2 4.3
2018-Jul-21 21:30N 45°51' W 122°47'1 1.4
2018-Jul-21 21:00N 45°50' W 122°48'2 4.9
2018-Jul-21 20:30N 45°48' W 122°50'1 2.0
2018-Jul-21 20:00N 45°48' W 122°51'0 0.1
2018-Jul-21 19:30N 45°48' W 122°51'0 0.0
2018-Jul-21 19:00N 45°48' W 122°51'0 0.0
2018-Jul-21 18:30N 45°48' W 122°51'0 0.1
2018-Jul-21 17:57N 45°48' W 122°51'0 0.0
2018-Jul-21 17:30N 45°48' W 122°51'0 0.0
2018-Jul-21 17:00N 45°48' W 122°51'1 2.4
2018-Jul-21 16:30N 45°48' W 122°50'3 5.7
2018-Jul-21 16:00N 45°51' W 122°48'0 1.0
2018-Jul-21 15:30N 45°51' W 122°47'4 8.0
2018-Jul-21 14:57N 45°47' W 122°46'3 7.9
2018-Jul-21 14:30N 45°43' W 122°46'7 7.3
2018-Jul-21 13:30N 45°36' W 122°47'3 6.0
2018-Jul-21 13:00N 45°34' W 122°44'2 4.2
2018-Jul-21 12:30N 45°33' W 122°41'0 0.0
2018-Jul-21 12:00N 45°33' W 122°41'0 0.0
2018-Jul-21 11:30N 45°33' W 122°41'0 0.0
2018-Jul-21 11:00N 45°33' W 122°41'0 0.0
2018-Jul-21 10:30N 45°33' W 122°41'0 0.0
2018-Jul-21 10:00N 45°33' W 122°41'0 0.0
2018-Jul-21 09:30N 45°33' W 122°41'0 0.0
2018-Jul-21 09:00N 45°33' W 122°41'0 0.0
2018-Jul-21 08:30N 45°33' W 122°41'1 1.6
2018-Jul-21 08:00N 45°33' W 122°42'2 3.0
2018-Jul-21 07:30N 45°34' W 122°44'3 6.0
2018-Jul-21 06:59N 45°36' W 122°47'5 7.5
2018-Jul-21 06:16N 45°40' W 122°52'0 0.2
2018-Jul-21 05:56N 45°41' W 122°52'2 5.5
2018-Jul-21 05:30N 45°43' W 122°52'2 4.8
2018-Jul-21 05:00N 45°45' W 122°50'2 4.7
2018-Jul-21 04:30N 45°47' W 122°49'1 2.6
2018-Jul-21 04:00N 45°48' W 122°50'1 1.8
2018-Jul-21 03:30N 45°48' W 122°51'0 0.1
2018-Jul-21 03:00N 45°48' W 122°51'0 0.0
2018-Jul-21 02:30N 45°48' W 122°51'0 0.0
2018-Jul-21 02:00N 45°48' W 122°51'0 0.0
2018-Jul-21 01:19N 45°48' W 122°51'0 0.2
2018-Jul-21 01:00N 45°48' W 122°51'3 4.2
2018-Jul-21 00:11N 45°50' W 122°48'1 6.0
2018-Jul-21 00:00N 45°52' W 122°48'4 6.8
2018-Jul-20 23:29N 45°48' W 122°47'4 7.7
2018-Jul-20 23:00N 45°44' W 122°46'4 7.7
2018-Jul-20 22:30N 45°41' W 122°46'3 5.4
2018-Jul-20 22:00N 45°39' W 122°44'0 0.0
2018-Jul-20 21:14N 45°39' W 122°44'0 0.0
2018-Jul-20 21:00N 45°39' W 122°44'0 0.0
2018-Jul-20 20:30N 45°39' W 122°44'0 0.0
2018-Jul-20 20:00N 45°39' W 122°44'0 0.0
2018-Jul-20 19:17N 45°39' W 122°44'0 0.0
2018-Jul-20 19:00N 45°39' W 122°44'0 0.0
2018-Jul-20 18:30N 45°39' W 122°44'0 0.0
2018-Jul-20 18:00N 45°39' W 122°44'0 0.0
2018-Jul-20 17:30N 45°39' W 122°44'2 3.9
2018-Jul-20 17:00N 45°40' W 122°46'3 4.9
2018-Jul-20 16:22N 45°43' W 122°46'2 4.8
2018-Jul-20 16:00N 45°45' W 122°46'2 4.6
2018-Jul-20 15:30N 45°47' W 122°47'3 4.4
2018-Jul-20 14:55N 45°49' W 122°48'3 4.3
2018-Jul-20 14:16N 45°52' W 122°47'2 7.3
2018-Jul-20 14:00N 45°50' W 122°48'1 2.8
2018-Jul-20 13:30N 45°49' W 122°49'1 2.8
2018-Jul-20 13:00N 45°48' W 122°50'0 1.0
2018-Jul-20 12:30N 45°48' W 122°51'0 0.1
2018-Jul-20 12:00N 45°48' W 122°51'0 0.0
2018-Jul-20 11:30N 45°48' W 122°51'0 0.0
2018-Jul-20 11:00N 45°48' W 122°51'0 0.0
2018-Jul-20 10:30N 45°48' W 122°51'0 0.0
2018-Jul-20 10:00N 45°48' W 122°51'0 0.0
2018-Jul-20 09:30N 45°48' W 122°51'0 0.0
2018-Jul-20 08:58N 45°48' W 122°51'0 0.0
2018-Jul-20 08:30N 45°48' W 122°51'0 0.0
2018-Jul-20 07:55N 45°48' W 122°51'0 0.0
2018-Jul-20 07:30N 45°48' W 122°51'0 0.0
2018-Jul-20 06:59N 45°48' W 122°51'0 0.0
2018-Jul-20 06:30N 45°48' W 122°51'0 0.0
2018-Jul-20 06:00N 45°48' W 122°51'0 0.0
2018-Jul-20 05:30N 45°48' W 122°51'0 0.0
2018-Jul-20 04:58N 45°48' W 122°51'0 0.0
2018-Jul-20 04:30N 45°48' W 122°51'0 0.0
2018-Jul-20 03:56N 45°48' W 122°51'0 0.0
2018-Jul-20 03:30N 45°48' W 122°51'0 0.0
2018-Jul-20 03:00N 45°48' W 122°51'0 0.1
2018-Jul-20 02:30N 45°48' W 122°51'2 3.3
2018-Jul-20 02:00N 45°49' W 122°50'3 5.9
2018-Jul-20 01:30N 45°52' W 122°48'4 7.5
2018-Jul-20 01:00N 45°48' W 122°47'4 8.1
2018-Jul-20 00:30N 45°44' W 122°46'4 7.9
2018-Jul-20 00:00N 45°40' W 122°46'2 4.2
2018-Jul-19 23:30N 45°39' W 122°44'0 0.0
2018-Jul-19 23:00N 45°39' W 122°44'0 0.0
2018-Jul-19 22:30N 45°39' W 122°44'0 0.0
2018-Jul-19 22:00N 45°39' W 122°44'0 0.0
2018-Jul-19 21:30N 45°39' W 122°44'0 0.0
2018-Jul-19 20:59N 45°39' W 122°44'0 0.0
2018-Jul-19 20:30N 45°39' W 122°44'0 0.0
2018-Jul-19 19:59N 45°39' W 122°44'0 0.0
2018-Jul-19 19:29N 45°39' W 122°44'2 3.8
2018-Jul-19 19:00N 45°40' W 122°46'2 4.9
2018-Jul-19 18:30N 45°42' W 122°46'3 5.1
2018-Jul-19 18:00N 45°45' W 122°46'4 5.3
2018-Jul-19 17:18N 45°48' W 122°47'2 5.3
2018-Jul-19 16:52N 45°50' W 122°47'1 1.8
2018-Jul-19 16:30N 45°51' W 122°48'3 5.2
2018-Jul-19 16:00N 45°49' W 122°50'1 1.9
2018-Jul-19 15:23N 45°48' W 122°51'0 0.3
2018-Jul-19 14:55N 45°48' W 122°51'0 0.1
2018-Jul-19 14:00N 45°48' W 122°51'0 0.0
2018-Jul-19 13:27N 45°48' W 122°51'0 0.0
2018-Jul-19 13:00N 45°48' W 122°51'0 0.0
2018-Jul-19 12:30N 45°48' W 122°51'0 0.0
2018-Jul-19 12:00N 45°48' W 122°51'0 0.0
2018-Jul-19 11:30N 45°48' W 122°51'0 0.1
2018-Jul-19 11:00N 45°48' W 122°51'1 2.9
2018-Jul-19 10:30N 45°49' W 122°50'3 5.4
2018-Jul-19 09:55N 45°52' W 122°47'3 7.8
2018-Jul-19 09:30N 45°48' W 122°47'4 7.6
2018-Jul-19 09:00N 45°45' W 122°46'4 7.5
2018-Jul-19 08:30N 45°41' W 122°46'3 6.6
2018-Jul-19 08:00N 45°38' W 122°47'3 6.6
2018-Jul-19 07:30N 45°35' W 122°45'1 2.5
2018-Jul-19 06:59N 45°34' W 122°44'0 0.0
2018-Jul-19 06:30N 45°34' W 122°44'0 0.0
2018-Jul-19 06:00N 45°34' W 122°44'0 0.0
2018-Jul-19 05:30N 45°34' W 122°44'0 0.0
2018-Jul-19 05:00N 45°34' W 122°44'0 0.0
2018-Jul-19 04:29N 45°34' W 122°44'0 0.0
2018-Jul-19 04:00N 45°34' W 122°44'0 0.0
2018-Jul-19 03:30N 45°34' W 122°44'2 3.7
2018-Jul-19 03:00N 45°35' W 122°46'3 5.5
2018-Jul-19 02:29N 45°37' W 122°48'2 4.7
2018-Jul-19 02:00N 45°39' W 122°50'2 4.5
2018-Jul-19 01:30N 45°41' W 122°52'2 4.5
2018-Jul-19 01:00N 45°43' W 122°52'2 4.0
2018-Jul-19 00:31N 45°45' W 122°50'2 3.4
2018-Jul-19 00:00N 45°46' W 122°49'2 3.6
2018-Jul-18 23:30N 45°48' W 122°49'1 2.8
2018-Jul-18 23:00N 45°48' W 122°50'0 0.2
2018-Jul-18 22:20N 45°48' W 122°51'0 0.0
2018-Jul-18 22:00N 45°48' W 122°51'0 0.0
2018-Jul-18 21:31N 45°48' W 122°51'0 0.0
2018-Jul-18 21:00N 45°48' W 122°51'0 0.0
2018-Jul-18 20:30N 45°48' W 122°51'0 0.0
2018-Jul-18 20:00N 45°48' W 122°51'0 0.0
2018-Jul-18 19:30N 45°48' W 122°51'0 0.1
2018-Jul-18 19:00N 45°48' W 122°51'1 1.8
2018-Jul-18 18:21N 45°48' W 122°49'0 0.0
2018-Jul-18 18:00N 45°48' W 122°49'2 4.7
2018-Jul-18 17:30N 45°50' W 122°48'1 2.1
2018-Jul-18 17:00N 45°50' W 122°48'4 7.5
2018-Jul-18 16:30N 45°46' W 122°46'4 7.6
2018-Jul-18 16:00N 45°42' W 122°46'4 7.2
2018-Jul-18 15:30N 45°39' W 122°45'4 8.3
2018-Jul-18 15:00N 45°37' W 122°39'4 8.6
2018-Jul-18 14:30N 45°36' W 122°33'5 4.4
2018-Jul-18 13:20N 45°34' W 122°27'0 0.0
2018-Jul-18 12:58N 45°34' W 122°27'0 0.0
2018-Jul-18 12:16N 45°34' W 122°27'0 0.0
2018-Jul-18 11:57N 45°34' W 122°27'0 0.0
2018-Jul-18 11:27N 45°34' W 122°27'0 0.0
2018-Jul-18 10:28N 45°34' W 122°27'0 0.0
2018-Jul-18 10:00N 45°34' W 122°27'0 0.0
2018-Jul-18 09:28N 45°34' W 122°27'0 0.0
2018-Jul-18 09:00N 45°34' W 122°27'0 0.0
2018-Jul-18 08:30N 45°34' W 122°27'1 2.0
2018-Jul-18 08:00N 45°34' W 122°28'2 3.7
2018-Jul-18 07:30N 45°35' W 122°30'2 3.7
2018-Jul-18 07:00N 45°36' W 122°33'2 3.9
2018-Jul-18 06:30N 45°36' W 122°35'2 4.2
2018-Jul-18 06:00N 45°37' W 122°38'2 4.2
2018-Jul-18 05:30N 45°37' W 122°41'3 4.6
2018-Jul-18 04:52N 45°39' W 122°45'2 5.5
2018-Jul-18 04:30N 45°41' W 122°46'3 5.6
2018-Jul-18 03:55N 45°44' W 122°46'2 5.8
2018-Jul-18 03:30N 45°46' W 122°46'3 5.5
2018-Jul-18 03:00N 45°49' W 122°48'3 5.4
2018-Jul-18 02:30N 45°52' W 122°47'2 4.3
2018-Jul-18 02:00N 45°50' W 122°49'2 3.8
2018-Jul-18 01:30N 45°48' W 122°50'1 0.6
2018-Jul-18 00:40N 45°48' W 122°51'0 0.0
2018-Jul-18 00:30N 45°48' W 122°51'0 0.0
2018-Jul-18 00:00N 45°48' W 122°51'0 0.0
2018-Jul-17 23:30N 45°48' W 122°51'0 0.0
2018-Jul-17 23:00N 45°48' W 122°51'0 0.0
2018-Jul-17 22:30N 45°48' W 122°51'0 0.0
2018-Jul-17 22:00N 45°48' W 122°51'0 0.0
2018-Jul-17 21:30N 45°48' W 122°51'0 0.0
2018-Jul-17 21:00N 45°48' W 122°51'0 0.0
2018-Jul-17 20:30N 45°48' W 122°51'0 0.0
2018-Jul-17 20:00N 45°48' W 122°51'0 0.0
2018-Jul-17 19:30N 45°48' W 122°51'0 0.0
2018-Jul-17 19:00N 45°48' W 122°51'0 0.0
2018-Jul-17 18:30N 45°48' W 122°51'1 1.9
2018-Jul-17 18:00N 45°48' W 122°50'3 5.4
2018-Jul-17 17:30N 45°51' W 122°48'1 1.9
2018-Jul-17 17:00N 45°50' W 122°48'6 7.5
2018-Jul-17 16:15N 45°44' W 122°46'2 7.3
2018-Jul-17 16:00N 45°42' W 122°46'3 6.9
2018-Jul-17 15:30N 45°39' W 122°46'3 5.8
2018-Jul-17 15:00N 45°36' W 122°47'3 6.1
2018-Jul-17 14:30N 45°34' W 122°44'0 0.1
2018-Jul-17 14:00N 45°34' W 122°44'0 0.0
2018-Jul-17 13:30N 45°34' W 122°44'0 0.0
2018-Jul-17 13:00N 45°34' W 122°44'0 0.0
2018-Jul-17 12:30N 45°34' W 122°44'0 0.0
2018-Jul-17 11:50N 45°34' W 122°44'0 0.0
2018-Jul-17 11:23N 45°34' W 122°44'0 0.0
2018-Jul-17 11:00N 45°34' W 122°44'0 0.0
2018-Jul-17 10:16N 45°34' W 122°44'0 0.0
2018-Jul-17 10:00N 45°34' W 122°44'2 4.6
2018-Jul-17 09:30N 45°35' W 122°46'4 8.3
2018-Jul-17 09:00N 45°39' W 122°50'0 0.8
2018-Jul-17 08:30N 45°39' W 122°50'2 4.2
2018-Jul-17 08:00N 45°41' W 122°52'2 4.2
2018-Jul-17 07:30N 45°43' W 122°52'2 3.8
2018-Jul-17 06:59N 45°45' W 122°50'2 3.3
2018-Jul-17 06:30N 45°46' W 122°49'2 3.8
2018-Jul-17 06:00N 45°48' W 122°48'1 2.7
2018-Jul-17 05:30N 45°48' W 122°50'1 1.1
2018-Jul-17 05:00N 45°48' W 122°51'0 0.0
2018-Jul-17 04:30N 45°48' W 122°51'0 0.0
2018-Jul-17 04:00N 45°48' W 122°51'0 0.0
2018-Jul-17 03:30N 45°48' W 122°51'0 0.0
2018-Jul-17 02:59N 45°48' W 122°51'0 0.0
2018-Jul-17 02:30N 45°48' W 122°51'0 0.0
2018-Jul-17 02:00N 45°48' W 122°51'0 0.1
2018-Jul-17 01:30N 45°48' W 122°51'2 4.3
2018-Jul-17 01:00N 45°49' W 122°49'2 3.9
2018-Jul-17 00:31N 45°51' W 122°47'8 8.0
2018-Jul-16 23:30N 45°43' W 122°46'4 7.8
2018-Jul-16 23:00N 45°39' W 122°46'3 6.2
2018-Jul-16 22:30N 45°36' W 122°47'3 5.7
2018-Jul-16 22:00N 45°34' W 122°44'0 0.1
2018-Jul-16 21:30N 45°34' W 122°44'0 0.0
2018-Jul-16 21:00N 45°34' W 122°44'0 0.0
2018-Jul-16 20:30N 45°34' W 122°44'0 0.0
2018-Jul-16 20:01N 45°34' W 122°44'0 0.0
2018-Jul-16 19:30N 45°34' W 122°44'0 0.0
2018-Jul-16 19:00N 45°34' W 122°44'0 0.0
2018-Jul-16 18:30N 45°34' W 122°44'0 0.0
2018-Jul-16 18:00N 45°34' W 122°44'1 1.2
2018-Jul-16 17:30N 45°34' W 122°44'3 5.2
2018-Jul-16 17:00N 45°36' W 122°47'2 4.7
2018-Jul-16 16:31N 45°38' W 122°49'2 4.5
2018-Jul-16 16:00N 45°40' W 122°51'2 4.4
2018-Jul-16 15:30N 45°42' W 122°52'2 4.7
2018-Jul-16 15:01N 45°44' W 122°51'2 4.2
2018-Jul-16 14:30N 45°46' W 122°49'2 4.8
2018-Jul-16 14:00N 45°48' W 122°48'2 3.3
2018-Jul-16 13:31N 45°48' W 122°51'0 0.3
2018-Jul-16 13:00N 45°48' W 122°51'0 0.1
2018-Jul-16 12:31N 45°48' W 122°51'0 0.0
2018-Jul-15 17:03N 45°48' W 122°51'0 0.0
2018-Jul-15 17:00N 45°48' W 122°51'1 1.1
2018-Jul-15 16:30N 45°48' W 122°50'3 5.2
2018-Jul-15 16:00N 45°50' W 122°48'1 1.4
2018-Jul-15 15:30N 45°50' W 122°48'4 8.1
2018-Jul-15 15:00N 45°46' W 122°46'4 7.9
2018-Jul-15 14:30N 45°42' W 122°46'3 7.0
2018-Jul-15 14:01N 45°39' W 122°44'1 1.3
2018-Jul-15 13:29N 45°39' W 122°45'3 5.9
2018-Jul-15 13:00N 45°36' W 122°47'3 5.4
2018-Jul-15 12:30N 45°34' W 122°45'1 1.3
2018-Jul-15 12:01N 45°34' W 122°44'0 0.0
2018-Jul-15 11:30N 45°34' W 122°44'1 1.6
2018-Jul-15 11:01N 45°35' W 122°45'3 6.8
2018-Jul-15 10:30N 45°37' W 122°48'3 6.0
2018-Jul-15 09:59N 45°39' W 122°44'0 0.1
2018-Jul-15 09:30N 45°39' W 122°44'2 4.0
2018-Jul-15 09:00N 45°40' W 122°46'2 4.3
2018-Jul-15 08:31N 45°42' W 122°46'2 4.3
2018-Jul-15 08:00N 45°44' W 122°46'2 4.3
2018-Jul-15 07:30N 45°46' W 122°46'2 4.4
2018-Jul-15 06:59N 45°48' W 122°47'2 4.1
2018-Jul-15 06:30N 45°50' W 122°47'1 1.6
2018-Jul-15 06:00N 45°51' W 122°48'3 5.6
2018-Jul-15 05:30N 45°48' W 122°49'1 2.4
2018-Jul-15 05:00N 45°48' W 122°51'0 0.1
2018-Jul-15 04:30N 45°48' W 122°51'0 0.0
2018-Jul-15 04:00N 45°48' W 122°51'0 0.0
2018-Jul-15 03:30N 45°48' W 122°51'0 0.0
2018-Jul-15 03:00N 45°48' W 122°51'0 0.0
2018-Jul-15 02:30N 45°48' W 122°51'0 0.0
2018-Jul-15 02:01N 45°48' W 122°51'0 0.0
2018-Jul-15 01:30N 45°48' W 122°51'0 0.1
2018-Jul-15 01:00N 45°48' W 122°51'1 1.8
2018-Jul-15 00:30N 45°48' W 122°50'1 1.9
2018-Jul-15 00:00N 45°49' W 122°49'1 1.6
2018-Jul-14 23:13N 45°49' W 122°48'2 8.5
2018-Jul-14 23:00N 45°47' W 122°47'4 8.3
2018-Jul-14 22:30N 45°43' W 122°46'4 8.1
2018-Jul-14 22:00N 45°39' W 122°45'1 2.9
2018-Jul-14 21:30N 45°39' W 122°44'0 0.0
2018-Jul-14 21:00N 45°39' W 122°44'0 0.0
2018-Jul-14 20:30N 45°39' W 122°44'0 0.0
2018-Jul-14 20:00N 45°39' W 122°44'0 0.0
2018-Jul-14 19:30N 45°39' W 122°44'0 0.0
2018-Jul-14 19:01N 45°39' W 122°44'0 0.0
2018-Jul-14 18:29N 45°39' W 122°44'0 0.0
2018-Jul-14 18:00N 45°39' W 122°44'1 2.1
2018-Jul-14 17:30N 45°39' W 122°45'2 4.7
2018-Jul-14 17:00N 45°41' W 122°46'2 4.8
2018-Jul-14 16:31N 45°43' W 122°46'2 4.9
2018-Jul-14 16:01N 45°46' W 122°46'2 4.8
2018-Jul-14 15:31N 45°48' W 122°47'2 4.5
2018-Jul-14 15:00N 45°50' W 122°47'1 1.3
2018-Jul-14 14:30N 45°51' W 122°48'3 2.9
2018-Jul-14 13:29N 45°48' W 122°50'1 1.9
2018-Jul-14 13:00N 45°48' W 122°51'0 0.1
2018-Jul-14 12:30N 45°48' W 122°51'0 0.0
2018-Jul-14 12:00N 45°48' W 122°51'0 0.0
2018-Jul-14 11:30N 45°48' W 122°51'0 0.0
2018-Jul-14 11:01N 45°48' W 122°51'0 0.0
2018-Jul-14 10:30N 45°48' W 122°51'0 0.0
2018-Jul-14 10:00N 45°48' W 122°51'0 0.0
2018-Jul-14 09:15N 45°48' W 122°51'0 0.0
2018-Jul-14 09:00N 45°48' W 122°51'0 0.0
2018-Jul-14 08:30N 45°48' W 122°51'0 0.0
2018-Jul-14 08:00N 45°48' W 122°51'0 0.0
2018-Jul-14 07:31N 45°48' W 122°51'0 0.0
2018-Jul-14 06:59N 45°48' W 122°51'0 0.1
2018-Jul-14 06:30N 45°48' W 122°51'1 1.4
2018-Jul-14 06:00N 45°48' W 122°50'2 3.2
2018-Jul-14 05:31N 45°49' W 122°49'2 4.4
2018-Jul-14 05:00N 45°51' W 122°47'4 7.6
2018-Jul-14 04:30N 45°47' W 122°47'4 7.8
2018-Jul-14 04:00N 45°44' W 122°46'4 7.8
2018-Jul-14 03:26N 45°39' W 122°45'1 3.1
2018-Jul-14 03:01N 45°39' W 122°44'0 0.0
2018-Jul-14 02:30N 45°39' W 122°44'0 0.0
2018-Jul-14 02:00N 45°39' W 122°44'0 0.0
2018-Jul-14 01:30N 45°39' W 122°44'0 0.0
2018-Jul-14 00:59N 45°39' W 122°44'0 0.0
2018-Jul-14 00:30N 45°39' W 122°44'0 0.0
2018-Jul-13 23:49N 45°39' W 122°44'0 0.0
2018-Jul-13 23:30N 45°39' W 122°44'0 0.4
2018-Jul-13 23:00N 45°39' W 122°44'2 4.2
2018-Jul-13 22:31N 45°40' W 122°46'2 4.6
2018-Jul-13 22:00N 45°42' W 122°46'2 4.5
2018-Jul-13 21:30N 45°45' W 122°46'2 4.5
2018-Jul-13 21:00N 45°47' W 122°47'3 4.2
2018-Jul-13 20:16N 45°50' W 122°47'1 4.2
2018-Jul-13 20:00N 45°51' W 122°47'2 3.1
2018-Jul-13 19:31N 45°50' W 122°49'2 3.3
2018-Jul-13 19:00N 45°48' W 122°49'1 1.9
2018-Jul-13 18:31N 45°48' W 122°50'0 0.4
2018-Jul-13 18:01N 45°48' W 122°51'0 0.1
2018-Jul-13 17:30N 45°48' W 122°51'0 0.0
2018-Jul-13 17:00N 45°48' W 122°51'0 0.0
2018-Jul-13 16:30N 45°48' W 122°51'0 0.0
2018-Jul-13 16:00N 45°48' W 122°51'0 0.0
2018-Jul-13 15:30N 45°48' W 122°51'0 0.1
2018-Jul-13 14:59N 45°48' W 122°51'1 1.2
2018-Jul-13 14:00N 45°48' W 122°49'3 5.3
2018-Jul-13 13:31N 45°51' W 122°48'2 3.3
2018-Jul-13 13:00N 45°49' W 122°48'4 7.3
2018-Jul-13 12:30N 45°46' W 122°46'4 7.1
2018-Jul-13 12:00N 45°42' W 122°46'3 6.9
2018-Jul-13 11:31N 45°39' W 122°45'3 6.7
2018-Jul-13 11:00N 45°37' W 122°41'2 3.1
2018-Jul-13 10:30N 45°37' W 122°39'4 8.1
2018-Jul-13 10:00N 45°36' W 122°33'4 8.9
2018-Jul-13 09:30N 45°34' W 122°27'0 0.8
2018-Jul-13 09:00N 45°34' W 122°27'0 0.0
2018-Jul-13 08:30N 45°34' W 122°27'0 0.0
2018-Jul-13 08:00N 45°34' W 122°27'0 0.0
2018-Jul-13 07:31N 45°34' W 122°27'0 0.0
2018-Jul-13 06:59N 45°34' W 122°27'0 0.0
2018-Jul-13 06:30N 45°34' W 122°27'0 0.0
2018-Jul-13 05:58N 45°34' W 122°27'0 0.0
2018-Jul-13 05:29N 45°34' W 122°27'0 0.0
2018-Jul-13 05:00N 45°34' W 122°27'0 0.0
2018-Jul-13 04:30N 45°34' W 122°27'0 0.0
2018-Jul-13 04:00N 45°34' W 122°27'1 1.2
2018-Jul-13 03:28N 45°34' W 122°27'1 3.2
2018-Jul-13 03:00N 45°35' W 122°29'2 3.9
2018-Jul-13 02:30N 45°35' W 122°32'2 3.9
2018-Jul-13 02:00N 45°36' W 122°35'2 4.1
2018-Jul-13 01:31N 45°36' W 122°37'2 4.3
2018-Jul-13 01:00N 45°37' W 122°40'1 3.0
2018-Jul-13 00:30N 45°38' W 122°42'2 4.1
2018-Jul-13 00:00N 45°39' W 122°45'3 5.3
2018-Jul-12 23:30N 45°41' W 122°46'3 5.4
2018-Jul-12 23:00N 45°44' W 122°46'3 5.3
2018-Jul-12 22:30N 45°47' W 122°46'2 5.0
2018-Jul-12 22:01N 45°49' W 122°48'2 4.4
2018-Jul-12 21:30N 45°51' W 122°47'1 2.2
2018-Jul-12 21:00N 45°50' W 122°48'3 5.0
2018-Jul-12 20:30N 45°48' W 122°50'1 1.6
2018-Jul-12 20:00N 45°48' W 122°51'0 0.1
2018-Jul-12 19:30N 45°48' W 122°51'0 0.0
2018-Jul-12 19:01N 45°48' W 122°51'0 0.0
2018-Jul-12 18:30N 45°48' W 122°51'0 0.0
2018-Jul-12 18:00N 45°48' W 122°51'0 0.0
2018-Jul-12 17:22N 45°48' W 122°51'0 0.0
2018-Jul-12 17:00N 45°48' W 122°51'0 0.0
2018-Jul-12 16:30N 45°48' W 122°51'0 0.0
2018-Jul-12 16:00N 45°48' W 122°51'1 1.0
2018-Jul-12 15:30N 45°48' W 122°50'2 4.4
2018-Jul-12 15:01N 45°50' W 122°49'1 2.1
2018-Jul-12 14:30N 45°50' W 122°47'4 8.4
2018-Jul-12 14:01N 45°46' W 122°46'  
Track history (hours):
 
Tides and Currents Weather Stations Pressure Air Temp Water Temp Dewpoint Dewpoint Depression Visibility Wind Speed Wind Dir Waves Ship Positions

Vicki B

Last reported at 2018-Jul-22 13:56 UTC. Time now 2018-Jul-22 14:11 UTC.
Position N 45°48' W 122°51'.

Type: Towing. MMSI: 367681630.

Date/timePositionNaut miles runAvg speedWind from/ knotsBaromVisibWave heightAir tempDewpointWater temp
2018-Jul-22 13:56N 45°48' W 122°51'0 0.0
2018-Jul-22 13:30N 45°48' W 122°51'1 2.3
2018-Jul-22 13:00N 45°48' W 122°50'1 2.9
2018-Jul-22 12:30N 45°50' W 122°49'2 2.2
2018-Jul-22 11:46N 45°48' W 122°47'2 8.4
2018-Jul-22 11:30N 45°46' W 122°46'4 8.1
2018-Jul-22 11:00N 45°42' W 122°46'4 7.4
2018-Jul-22 10:29N 45°39' W 122°44'4 8.0
2018-Jul-22 10:00N 45°37' W 122°39'4 8.3
2018-Jul-22 09:30N 45°36' W 122°34'4 7.1
2018-Jul-22 09:00N 45°35' W 122°29'2 3.5
2018-Jul-22 08:30N 45°34' W 122°27'0 0.0
2018-Jul-22 08:00N 45°34' W 122°27'0 0.0
2018-Jul-22 07:14N 45°34' W 122°27'0 0.0
2018-Jul-22 07:00N 45°34' W 122°27'0 0.0
2018-Jul-22 06:30N 45°34' W 122°27'0 0.0
2018-Jul-22 06:00N 45°34' W 122°27'0 0.0
2018-Jul-22 05:30N 45°34' W 122°27'0 0.0
2018-Jul-22 04:50N 45°34' W 122°27'0 0.3
2018-Jul-22 04:15N 45°34' W 122°27'1 3.0
2018-Jul-22 03:49N 45°35' W 122°28'1 3.4
2018-Jul-22 03:30N 45°35' W 122°30'2 3.5
2018-Jul-22 03:00N 45°35' W 122°32'2 3.3
2018-Jul-22 02:30N 45°36' W 122°34'2 3.5
2018-Jul-22 02:00N 45°36' W 122°37'2 3.7
2018-Jul-22 01:30N 45°37' W 122°39'2 3.5
2018-Jul-22 01:00N 45°38' W 122°42'2 3.3
2018-Jul-22 00:30N 45°38' W 122°44'2 4.2
2018-Jul-21 23:59N 45°40' W 122°46'2 4.3
2018-Jul-21 23:30N 45°42' W 122°46'2 4.4
2018-Jul-21 23:00N 45°44' W 122°46'2 4.4
2018-Jul-21 22:30N 45°46' W 122°46'2 4.4
2018-Jul-21 22:00N 45°48' W 122°47'2 4.3
2018-Jul-21 21:30N 45°51' W 122°47'1 1.4
2018-Jul-21 21:00N 45°50' W 122°48'2 4.9
2018-Jul-21 20:30N 45°48' W 122°50'1 2.0
2018-Jul-21 20:00N 45°48' W 122°51'0 0.1
2018-Jul-21 19:30N 45°48' W 122°51'0 0.0
2018-Jul-21 19:00N 45°48' W 122°51'0 0.0
2018-Jul-21 18:30N 45°48' W 122°51'0 0.1
2018-Jul-21 17:57N 45°48' W 122°51'0 0.0
2018-Jul-21 17:30N 45°48' W 122°51'0 0.0
2018-Jul-21 17:00N 45°48' W 122°51'1 2.4
2018-Jul-21 16:30N 45°48' W 122°50'3 5.7
2018-Jul-21 16:00N 45°51' W 122°48'0 1.0
2018-Jul-21 15:30N 45°51' W 122°47'4 8.0
2018-Jul-21 14:57N 45°47' W 122°46'3 7.9
2018-Jul-21 14:30N 45°43' W 122°46'7 7.3
2018-Jul-21 13:30N 45°36' W 122°47'3 6.0
2018-Jul-21 13:00N 45°34' W 122°44'2 4.2
2018-Jul-21 12:30N 45°33' W 122°41'0 0.0
2018-Jul-21 12:00N 45°33' W 122°41'0 0.0
2018-Jul-21 11:30N 45°33' W 122°41'0 0.0
2018-Jul-21 11:00N 45°33' W 122°41'0 0.0
2018-Jul-21 10:30N 45°33' W 122°41'0 0.0
2018-Jul-21 10:00N 45°33' W 122°41'0 0.0
2018-Jul-21 09:30N 45°33' W 122°41'0 0.0
2018-Jul-21 09:00N 45°33' W 122°41'0 0.0
2018-Jul-21 08:30N 45°33' W 122°41'1 1.6
2018-Jul-21 08:00N 45°33' W 122°42'2 3.0
2018-Jul-21 07:30N 45°34' W 122°44'3 6.0
2018-Jul-21 06:59N 45°36' W 122°47'5 7.5
2018-Jul-21 06:16N 45°40' W 122°52'0 0.2
2018-Jul-21 05:56N 45°41' W 122°52'2 5.5
2018-Jul-21 05:30N 45°43' W 122°52'2 4.8
2018-Jul-21 05:00N 45°45' W 122°50'2 4.7
2018-Jul-21 04:30N 45°47' W 122°49'1 2.6
2018-Jul-21 04:00N 45°48' W 122°50'1 1.8
2018-Jul-21 03:30N 45°48' W 122°51'0 0.1
2018-Jul-21 03:00N 45°48' W 122°51'0 0.0
2018-Jul-21 02:30N 45°48' W 122°51'0 0.0
2018-Jul-21 02:00N 45°48' W 122°51'0 0.0
2018-Jul-21 01:19N 45°48' W 122°51'0 0.2
2018-Jul-21 01:00N 45°48' W 122°51'3 4.2
2018-Jul-21 00:11N 45°50' W 122°48'1 6.0
2018-Jul-21 00:00N 45°52' W 122°48'4 6.8
2018-Jul-20 23:29N 45°48' W 122°47'4 7.7
2018-Jul-20 23:00N 45°44' W 122°46'4 7.7
2018-Jul-20 22:30N 45°41' W 122°46'3 5.4
2018-Jul-20 22:00N 45°39' W 122°44'0 0.0
2018-Jul-20 21:14N 45°39' W 122°44'0 0.0
2018-Jul-20 21:00N 45°39' W 122°44'0 0.0
2018-Jul-20 20:30N 45°39' W 122°44'0 0.0
2018-Jul-20 20:00N 45°39' W 122°44'0 0.0
2018-Jul-20 19:17N 45°39' W 122°44'0 0.0
2018-Jul-20 19:00N 45°39' W 122°44'0 0.0
2018-Jul-20 18:30N 45°39' W 122°44'0 0.0
2018-Jul-20 18:00N 45°39' W 122°44'0 0.0
2018-Jul-20 17:30N 45°39' W 122°44'2 3.9
2018-Jul-20 17:00N 45°40' W 122°46'3 4.9
2018-Jul-20 16:22N 45°43' W 122°46'2 4.8
2018-Jul-20 16:00N 45°45' W 122°46'2 4.6
2018-Jul-20 15:30N 45°47' W 122°47'3 4.4
2018-Jul-20 14:55N 45°49' W 122°48'3 4.3
2018-Jul-20 14:16N 45°52' W 122°47'2 7.3
2018-Jul-20 14:00N 45°50' W 122°48'1 2.8
2018-Jul-20 13:30N 45°49' W 122°49'1 2.8
2018-Jul-20 13:00N 45°48' W 122°50'0 1.0
2018-Jul-20 12:30N 45°48' W 122°51'0 0.1
2018-Jul-20 12:00N 45°48' W 122°51'0 0.0
2018-Jul-20 11:30N 45°48' W 122°51'0 0.0
2018-Jul-20 11:00N 45°48' W 122°51'0 0.0
2018-Jul-20 10:30N 45°48' W 122°51'0 0.0
2018-Jul-20 10:00N 45°48' W 122°51'0 0.0
2018-Jul-20 09:30N 45°48' W 122°51'0 0.0
2018-Jul-20 08:58N 45°48' W 122°51'0 0.0
2018-Jul-20 08:30N 45°48' W 122°51'0 0.0
2018-Jul-20 07:55N 45°48' W 122°51'0 0.0
2018-Jul-20 07:30N 45°48' W 122°51'0 0.0
2018-Jul-20 06:59N 45°48' W 122°51'0 0.0
2018-Jul-20 06:30N 45°48' W 122°51'0 0.0
2018-Jul-20 06:00N 45°48' W 122°51'0 0.0
2018-Jul-20 05:30N 45°48' W 122°51'0 0.0
2018-Jul-20 04:58N 45°48' W 122°51'0 0.0
2018-Jul-20 04:30N 45°48' W 122°51'0 0.0
2018-Jul-20 03:56N 45°48' W 122°51'0 0.0
2018-Jul-20 03:30N 45°48' W 122°51'0 0.0
2018-Jul-20 03:00N 45°48' W 122°51'0 0.1
2018-Jul-20 02:30N 45°48' W 122°51'2 3.3
2018-Jul-20 02:00N 45°49' W 122°50'3 5.9
2018-Jul-20 01:30N 45°52' W 122°48'4 7.5
2018-Jul-20 01:00N 45°48' W 122°47'4 8.1
2018-Jul-20 00:30N 45°44' W 122°46'4 7.9
2018-Jul-20 00:00N 45°40' W 122°46'2 4.2
2018-Jul-19 23:30N 45°39' W 122°44'0 0.0
2018-Jul-19 23:00N 45°39' W 122°44'0 0.0
2018-Jul-19 22:30N 45°39' W 122°44'0 0.0
2018-Jul-19 22:00N 45°39' W 122°44'0 0.0
2018-Jul-19 21:30N 45°39' W 122°44'0 0.0
2018-Jul-19 20:59N 45°39' W 122°44'0 0.0
2018-Jul-19 20:30N 45°39' W 122°44'0 0.0
2018-Jul-19 19:59N 45°39' W 122°44'0 0.0
2018-Jul-19 19:29N 45°39' W 122°44'2 3.8
2018-Jul-19 19:00N 45°40' W 122°46'2 4.9
2018-Jul-19 18:30N 45°42' W 122°46'3 5.1
2018-Jul-19 18:00N 45°45' W 122°46'4 5.3
2018-Jul-19 17:18N 45°48' W 122°47'2 5.3
2018-Jul-19 16:52N 45°50' W 122°47'1 1.8
2018-Jul-19 16:30N 45°51' W 122°48'3 5.2
2018-Jul-19 16:00N 45°49' W 122°50'1 1.9
2018-Jul-19 15:23N 45°48' W 122°51'0 0.3
2018-Jul-19 14:55N 45°48' W 122°51'0 0.1
2018-Jul-19 14:00N 45°48' W 122°51'0 0.0
2018-Jul-19 13:27N 45°48' W 122°51'0 0.0
2018-Jul-19 13:00N 45°48' W 122°51'0 0.0
2018-Jul-19 12:30N 45°48' W 122°51'0 0.0
2018-Jul-19 12:00N 45°48' W 122°51'0 0.0
2018-Jul-19 11:30N 45°48' W 122°51'0 0.1
2018-Jul-19 11:00N 45°48' W 122°51'1 2.9
2018-Jul-19 10:30N 45°49' W 122°50'3 5.4
2018-Jul-19 09:55N 45°52' W 122°47'3 7.8
2018-Jul-19 09:30N 45°48' W 122°47'4 7.6
2018-Jul-19 09:00N 45°45' W 122°46'4 7.5
2018-Jul-19 08:30N 45°41' W 122°46'3 6.6
2018-Jul-19 08:00N 45°38' W 122°47'3 6.6
2018-Jul-19 07:30N 45°35' W 122°45'1 2.5
2018-Jul-19 06:59N 45°34' W 122°44'0 0.0
2018-Jul-19 06:30N 45°34' W 122°44'0 0.0
2018-Jul-19 06:00N 45°34' W 122°44'0 0.0
2018-Jul-19 05:30N 45°34' W 122°44'0 0.0
2018-Jul-19 05:00N 45°34' W 122°44'0 0.0
2018-Jul-19 04:29N 45°34' W 122°44'0 0.0
2018-Jul-19 04:00N 45°34' W 122°44'0 0.0
2018-Jul-19 03:30N 45°34' W 122°44'2 3.7
2018-Jul-19 03:00N 45°35' W 122°46'3 5.5
2018-Jul-19 02:29N 45°37' W 122°48'2 4.7
2018-Jul-19 02:00N 45°39' W 122°50'2 4.5
2018-Jul-19 01:30N 45°41' W 122°52'2 4.5
2018-Jul-19 01:00N 45°43' W 122°52'2 4.0
2018-Jul-19 00:31N 45°45' W 122°50'2 3.4
2018-Jul-19 00:00N 45°46' W 122°49'2 3.6
2018-Jul-18 23:30N 45°48' W 122°49'1 2.8
2018-Jul-18 23:00N 45°48' W 122°50'0 0.2
2018-Jul-18 22:20N 45°48' W 122°51'0 0.0
2018-Jul-18 22:00N 45°48' W 122°51'0 0.0
2018-Jul-18 21:31N 45°48' W 122°51'0 0.0
2018-Jul-18 21:00N 45°48' W 122°51'0 0.0
2018-Jul-18 20:30N 45°48' W 122°51'0 0.0
2018-Jul-18 20:00N 45°48' W 122°51'0 0.0
2018-Jul-18 19:30N 45°48' W 122°51'0 0.1
2018-Jul-18 19:00N 45°48' W 122°51'1 1.8
2018-Jul-18 18:21N 45°48' W 122°49'0 0.0
2018-Jul-18 18:00N 45°48' W 122°49'2 4.7
2018-Jul-18 17:30N 45°50' W 122°48'1 2.1
2018-Jul-18 17:00N 45°50' W 122°48'4 7.5
2018-Jul-18 16:30N 45°46' W 122°46'4 7.6
2018-Jul-18 16:00N 45°42' W 122°46'4 7.2
2018-Jul-18 15:30N 45°39' W 122°45'4 8.3
2018-Jul-18 15:00N 45°37' W 122°39'4 8.6
2018-Jul-18 14:30N 45°36' W 122°33'5 4.4
2018-Jul-18 13:20N 45°34' W 122°27'0 0.0
2018-Jul-18 12:58N 45°34' W 122°27'0 0.0
2018-Jul-18 12:16N 45°34' W 122°27'0 0.0
2018-Jul-18 11:57N 45°34' W 122°27'0 0.0
2018-Jul-18 11:27N 45°34' W 122°27'0 0.0
2018-Jul-18 10:28N 45°34' W 122°27'0 0.0
2018-Jul-18 10:00N 45°34' W 122°27'0 0.0
2018-Jul-18 09:28N 45°34' W 122°27'0 0.0
2018-Jul-18 09:00N 45°34' W 122°27'0 0.0
2018-Jul-18 08:30N 45°34' W 122°27'1 2.0
2018-Jul-18 08:00N 45°34' W 122°28'2 3.7
2018-Jul-18 07:30N 45°35' W 122°30'2 3.7
2018-Jul-18 07:00N 45°36' W 122°33'2 3.9
2018-Jul-18 06:30N 45°36' W 122°35'2 4.2
2018-Jul-18 06:00N 45°37' W 122°38'2 4.2
2018-Jul-18 05:30N 45°37' W 122°41'3 4.6
2018-Jul-18 04:52N 45°39' W 122°45'2 5.5
2018-Jul-18 04:30N 45°41' W 122°46'3 5.6
2018-Jul-18 03:55N 45°44' W 122°46'2 5.8
2018-Jul-18 03:30N 45°46' W 122°46'3 5.5
2018-Jul-18 03:00N 45°49' W 122°48'3 5.4
2018-Jul-18 02:30N 45°52' W 122°47'2 4.3
2018-Jul-18 02:00N 45°50' W 122°49'2 3.8
2018-Jul-18 01:30N 45°48' W 122°50'1 0.6
2018-Jul-18 00:40N 45°48' W 122°51'0 0.0
2018-Jul-18 00:30N 45°48' W 122°51'0 0.0
2018-Jul-18 00:00N 45°48' W 122°51'0 0.0
2018-Jul-17 23:30N 45°48' W 122°51'0 0.0
2018-Jul-17 23:00N 45°48' W 122°51'0 0.0
2018-Jul-17 22:30N 45°48' W 122°51'0 0.0
2018-Jul-17 22:00N 45°48' W 122°51'0 0.0
2018-Jul-17 21:30N 45°48' W 122°51'0 0.0
2018-Jul-17 21:00N 45°48' W 122°51'0 0.0
2018-Jul-17 20:30N 45°48' W 122°51'0 0.0
2018-Jul-17 20:00N 45°48' W 122°51'0 0.0
2018-Jul-17 19:30N 45°48' W 122°51'0 0.0
2018-Jul-17 19:00N 45°48' W 122°51'0 0.0
2018-Jul-17 18:30N 45°48' W 122°51'1 1.9
2018-Jul-17 18:00N 45°48' W 122°50'3 5.4
2018-Jul-17 17:30N 45°51' W 122°48'1 1.9
2018-Jul-17 17:00N 45°50' W 122°48'6 7.5
2018-Jul-17 16:15N 45°44' W 122°46'2 7.3
2018-Jul-17 16:00N 45°42' W 122°46'3 6.9
2018-Jul-17 15:30N 45°39' W 122°46'3 5.8
2018-Jul-17 15:00N 45°36' W 122°47'3 6.1
2018-Jul-17 14:30N 45°34' W 122°44'0 0.1
2018-Jul-17 14:00N 45°34' W 122°44'0 0.0
2018-Jul-17 13:30N 45°34' W 122°44'0 0.0
2018-Jul-17 13:00N 45°34' W 122°44'0 0.0
2018-Jul-17 12:30N 45°34' W 122°44'0 0.0
2018-Jul-17 11:50N 45°34' W 122°44'0 0.0
2018-Jul-17 11:23N 45°34' W 122°44'0 0.0
2018-Jul-17 11:00N 45°34' W 122°44'0 0.0
2018-Jul-17 10:16N 45°34' W 122°44'0 0.0
2018-Jul-17 10:00N 45°34' W 122°44'2 4.6
2018-Jul-17 09:30N 45°35' W 122°46'4 8.3
2018-Jul-17 09:00N 45°39' W 122°50'0 0.8
2018-Jul-17 08:30N 45°39' W 122°50'2 4.2
2018-Jul-17 08:00N 45°41' W 122°52'2 4.2
2018-Jul-17 07:30N 45°43' W 122°52'2 3.8
2018-Jul-17 06:59N 45°45' W 122°50'2 3.3
2018-Jul-17 06:30N 45°46' W 122°49'2 3.8
2018-Jul-17 06:00N 45°48' W 122°48'1 2.7
2018-Jul-17 05:30N 45°48' W 122°50'1 1.1
2018-Jul-17 05:00N 45°48' W 122°51'0 0.0
2018-Jul-17 04:30N 45°48' W 122°51'0 0.0
2018-Jul-17 04:00N 45°48' W 122°51'0 0.0
2018-Jul-17 03:30N 45°48' W 122°51'0 0.0
2018-Jul-17 02:59N 45°48' W 122°51'0 0.0
2018-Jul-17 02:30N 45°48' W 122°51'0 0.0
2018-Jul-17 02:00N 45°48' W 122°51'0 0.1
2018-Jul-17 01:30N 45°48' W 122°51'2 4.3
2018-Jul-17 01:00N 45°49' W 122°49'2 3.9
2018-Jul-17 00:31N 45°51' W 122°47'8 8.0
2018-Jul-16 23:30N 45°43' W 122°46'4 7.8
2018-Jul-16 23:00N 45°39' W 122°46'3 6.2
2018-Jul-16 22:30N 45°36' W 122°47'3 5.7
2018-Jul-16 22:00N 45°34' W 122°44'0 0.1
2018-Jul-16 21:30N 45°34' W 122°44'0 0.0
2018-Jul-16 21:00N 45°34' W 122°44'0 0.0
2018-Jul-16 20:30N 45°34' W 122°44'0 0.0
2018-Jul-16 20:01N 45°34' W 122°44'0 0.0
2018-Jul-16 19:30N 45°34' W 122°44'0 0.0
2018-Jul-16 19:00N 45°34' W 122°44'0 0.0
2018-Jul-16 18:30N 45°34' W 122°44'0 0.0
2018-Jul-16 18:00N 45°34' W 122°44'1 1.2
2018-Jul-16 17:30N 45°34' W 122°44'3 5.2
2018-Jul-16 17:00N 45°36' W 122°47'2 4.7
2018-Jul-16 16:31N 45°38' W 122°49'2 4.5
2018-Jul-16 16:00N 45°40' W 122°51'2 4.4
2018-Jul-16 15:30N 45°42' W 122°52'2 4.7
2018-Jul-16 15:01N 45°44' W 122°51'2 4.2
2018-Jul-16 14:30N 45°46' W 122°49'2 4.8
2018-Jul-16 14:00N 45°48' W 122°48'2 3.3
2018-Jul-16 13:31N 45°48' W 122°51'0 0.3
2018-Jul-16 13:00N 45°48' W 122°51'0 0.1
2018-Jul-16 12:31N 45°48' W 122°51'0 0.0
2018-Jul-15 17:03N 45°48' W 122°51'0 0.0
2018-Jul-15 17:00N 45°48' W 122°51'1 1.1
2018-Jul-15 16:30N 45°48' W 122°50'3 5.2
2018-Jul-15 16:00N 45°50' W 122°48'1 1.4
2018-Jul-15 15:30N 45°50' W 122°48'4 8.1
2018-Jul-15 15:00N 45°46' W 122°46'4 7.9
2018-Jul-15 14:30N 45°42' W 122°46'3 7.0
2018-Jul-15 14:01N 45°39' W 122°44'1 1.3
2018-Jul-15 13:29N 45°39' W 122°45'3 5.9
2018-Jul-15 13:00N 45°36' W 122°47'3 5.4
2018-Jul-15 12:30N 45°34' W 122°45'1 1.3
2018-Jul-15 12:01N 45°34' W 122°44'0 0.0
2018-Jul-15 11:30N 45°34' W 122°44'1 1.6
2018-Jul-15 11:01N 45°35' W 122°45'3 6.8
2018-Jul-15 10:30N 45°37' W 122°48'3 6.0
2018-Jul-15 09:59N 45°39' W 122°44'0 0.1
2018-Jul-15 09:30N 45°39' W 122°44'2 4.0
2018-Jul-15 09:00N 45°40' W 122°46'2 4.3
2018-Jul-15 08:31N 45°42' W 122°46'2 4.3
2018-Jul-15 08:00N 45°44' W 122°46'2 4.3
2018-Jul-15 07:30N 45°46' W 122°46'2 4.4
2018-Jul-15 06:59N 45°48' W 122°47'2 4.1
2018-Jul-15 06:30N 45°50' W 122°47'1 1.6
2018-Jul-15 06:00N 45°51' W 122°48'3 5.6
2018-Jul-15 05:30N 45°48' W 122°49'1 2.4
2018-Jul-15 05:00N 45°48' W 122°51'0 0.1
2018-Jul-15 04:30N 45°48' W 122°51'0 0.0
2018-Jul-15 04:00N 45°48' W 122°51'0 0.0
2018-Jul-15 03:30N 45°48' W 122°51'0 0.0
2018-Jul-15 03:00N 45°48' W 122°51'0 0.0
2018-Jul-15 02:30N 45°48' W 122°51'0 0.0
2018-Jul-15 02:01N 45°48' W 122°51'0 0.0
2018-Jul-15 01:30N 45°48' W 122°51'0 0.1
2018-Jul-15 01:00N 45°48' W 122°51'1 1.8
2018-Jul-15 00:30N 45°48' W 122°50'1 1.9
2018-Jul-15 00:00N 45°49' W 122°49'1 1.6
2018-Jul-14 23:13N 45°49' W 122°48'2 8.5
2018-Jul-14 23:00N 45°47' W 122°47'4 8.3
2018-Jul-14 22:30N 45°43' W 122°46'4 8.1
2018-Jul-14 22:00N 45°39' W 122°45'1 2.9
2018-Jul-14 21:30N 45°39' W 122°44'0 0.0
2018-Jul-14 21:00N 45°39' W 122°44'0 0.0
2018-Jul-14 20:30N 45°39' W 122°44'0 0.0
2018-Jul-14 20:00N 45°39' W 122°44'0 0.0
2018-Jul-14 19:30N 45°39' W 122°44'0 0.0
2018-Jul-14 19:01N 45°39' W 122°44'0 0.0
2018-Jul-14 18:29N 45°39' W 122°44'0 0.0
2018-Jul-14 18:00N 45°39' W 122°44'1 2.1
2018-Jul-14 17:30N 45°39' W 122°45'2 4.7
2018-Jul-14 17:00N 45°41' W 122°46'2 4.8
2018-Jul-14 16:31N 45°43' W 122°46'2 4.9
2018-Jul-14 16:01N 45°46' W 122°46'2 4.8
2018-Jul-14 15:31N 45°48' W 122°47'2 4.5
2018-Jul-14 15:00N 45°50' W 122°47'1 1.3
2018-Jul-14 14:30N 45°51' W 122°48'3 2.9
2018-Jul-14 13:29N 45°48' W 122°50'1 1.9
2018-Jul-14 13:00N 45°48' W 122°51'0 0.1
2018-Jul-14 12:30N 45°48' W 122°51'0 0.0
2018-Jul-14 12:00N 45°48' W 122°51'0 0.0
2018-Jul-14 11:30N 45°48' W 122°51'0 0.0
2018-Jul-14 11:01N 45°48' W 122°51'0 0.0
2018-Jul-14 10:30N 45°48' W 122°51'0 0.0
2018-Jul-14 10:00N 45°48' W 122°51'0 0.0
2018-Jul-14 09:15N 45°48' W 122°51'0 0.0
2018-Jul-14 09:00N 45°48' W 122°51'0 0.0
2018-Jul-14 08:30N 45°48' W 122°51'0 0.0
2018-Jul-14 08:00N 45°48' W 122°51'0 0.0
2018-Jul-14 07:31N 45°48' W 122°51'0 0.0
2018-Jul-14 06:59N 45°48' W 122°51'0 0.1
2018-Jul-14 06:30N 45°48' W 122°51'1 1.4
2018-Jul-14 06:00N 45°48' W 122°50'2 3.2
2018-Jul-14 05:31N 45°49' W 122°49'2 4.4
2018-Jul-14 05:00N 45°51' W 122°47'4 7.6
2018-Jul-14 04:30N 45°47' W 122°47'4 7.8
2018-Jul-14 04:00N 45°44' W 122°46'4 7.8
2018-Jul-14 03:26N 45°39' W 122°45'1 3.1
2018-Jul-14 03:01N 45°39' W 122°44'0 0.0
2018-Jul-14 02:30N 45°39' W 122°44'0 0.0
2018-Jul-14 02:00N 45°39' W 122°44'0 0.0
2018-Jul-14 01:30N 45°39' W 122°44'0 0.0
2018-Jul-14 00:59N 45°39' W 122°44'0 0.0
2018-Jul-14 00:30N 45°39' W 122°44'0 0.0
2018-Jul-13 23:49N 45°39' W 122°44'0 0.0
2018-Jul-13 23:30N 45°39' W 122°44'0 0.4
2018-Jul-13 23:00N 45°39' W 122°44'2 4.2
2018-Jul-13 22:31N 45°40' W 122°46'2 4.6
2018-Jul-13 22:00N 45°42' W 122°46'2 4.5
2018-Jul-13 21:30N 45°45' W 122°46'2 4.5
2018-Jul-13 21:00N 45°47' W 122°47'3 4.2
2018-Jul-13 20:16N 45°50' W 122°47'1 4.2
2018-Jul-13 20:00N 45°51' W 122°47'2 3.1
2018-Jul-13 19:31N 45°50' W 122°49'2 3.3
2018-Jul-13 19:00N 45°48' W 122°49'1 1.9
2018-Jul-13 18:31N 45°48' W 122°50'0 0.4
2018-Jul-13 18:01N 45°48' W 122°51'0 0.1
2018-Jul-13 17:30N 45°48' W 122°51'0 0.0
2018-Jul-13 17:00N 45°48' W 122°51'0 0.0
2018-Jul-13 16:30N 45°48' W 122°51'0 0.0
2018-Jul-13 16:00N 45°48' W 122°51'0 0.0
2018-Jul-13 15:30N 45°48' W 122°51'0 0.1
2018-Jul-13 14:59N 45°48' W 122°51'1 1.2
2018-Jul-13 14:00N 45°48' W 122°49'3 5.3
2018-Jul-13 13:31N 45°51' W 122°48'2 3.3
2018-Jul-13 13:00N 45°49' W 122°48'4 7.3
2018-Jul-13 12:30N 45°46' W 122°46'4 7.1
2018-Jul-13 12:00N 45°42' W 122°46'3 6.9
2018-Jul-13 11:31N 45°39' W 122°45'3 6.7
2018-Jul-13 11:00N 45°37' W 122°41'2 3.1
2018-Jul-13 10:30N 45°37' W 122°39'4 8.1
2018-Jul-13 10:00N 45°36' W 122°33'4 8.9
2018-Jul-13 09:30N 45°34' W 122°27'0 0.8
2018-Jul-13 09:00N 45°34' W 122°27'0 0.0
2018-Jul-13 08:30N 45°34' W 122°27'0 0.0
2018-Jul-13 08:00N 45°34' W 122°27'0 0.0
2018-Jul-13 07:31N 45°34' W 122°27'0 0.0
2018-Jul-13 06:59N 45°34' W 122°27'0 0.0
2018-Jul-13 06:30N 45°34' W 122°27'0 0.0
2018-Jul-13 05:58N 45°34' W 122°27'0 0.0
2018-Jul-13 05:29N 45°34' W 122°27'0 0.0
2018-Jul-13 05:00N 45°34' W 122°27'0 0.0
2018-Jul-13 04:30N 45°34' W 122°27'0 0.0
2018-Jul-13 04:00N 45°34' W 122°27'1 1.2
2018-Jul-13 03:28N 45°34' W 122°27'1 3.2
2018-Jul-13 03:00N 45°35' W 122°29'2 3.9
2018-Jul-13 02:30N 45°35' W 122°32'2 3.9
2018-Jul-13 02:00N 45°36' W 122°35'2 4.1
2018-Jul-13 01:31N 45°36' W 122°37'2 4.3
2018-Jul-13 01:00N 45°37' W 122°40'1 3.0
2018-Jul-13 00:30N 45°38' W 122°42'2 4.1
2018-Jul-13 00:00N 45°39' W 122°45'3 5.3
2018-Jul-12 23:30N 45°41' W 122°46'3 5.4
2018-Jul-12 23:00N 45°44' W 122°46'3 5.3
2018-Jul-12 22:30N 45°47' W 122°46'2 5.0
2018-Jul-12 22:01N 45°49' W 122°48'2 4.4
2018-Jul-12 21:30N 45°51' W 122°47'1 2.2
2018-Jul-12 21:00N 45°50' W 122°48'3 5.0
2018-Jul-12 20:30N 45°48' W 122°50'1 1.6
2018-Jul-12 20:00N 45°48' W 122°51'0 0.1
2018-Jul-12 19:30N 45°48' W 122°51'0 0.0
2018-Jul-12 19:01N 45°48' W 122°51'0 0.0
2018-Jul-12 18:30N 45°48' W 122°51'0 0.0
2018-Jul-12 18:00N 45°48' W 122°51'0 0.0
2018-Jul-12 17:22N 45°48' W 122°51'0 0.0
2018-Jul-12 17:00N 45°48' W 122°51'0 0.0
2018-Jul-12 16:30N 45°48' W 122°51'0 0.0
2018-Jul-12 16:00N 45°48' W 122°51'1 1.0
2018-Jul-12 15:30N 45°48' W 122°50'2 4.4
2018-Jul-12 15:01N 45°50' W 122°49'1 2.1
2018-Jul-12 14:30N 45°50' W 122°47'4 8.4
2018-Jul-12 14:01N 45°46' W 122°46'  

Dump ship's entire track history